Welcome to our Virtual Airline
Sign-in:

Flight MFC37851

  • Submitted By: Georg Werderitsch
  • Departure Airport: Port Williams SPB (KPR)
  • Arrival Airport: Kulik Lake (LKK)
  • Aircraft: DHC2 BEAVER (N217MM)
  • Flight Time: 00.48.24
  • Date Submitted: 2019/03/11
  • Route: STOP-OVER AT OPTIONAL: (MCNEIL RIVER CAMP (MCN) (WATER) (THIS SPOT IS UN-MARKED BUT IT IS IN MCNEIL COVE)
  • Status: Accepted
Flight Details
Gross Revenue:
(5 load / $ 95.00 per unit
$ 475.00
Fuel Cost:
(77.1107 fuel used @ 5.1 / unit)
$ 393.26

Additional Log Information:

View Log

FS[07:35] ----- Flight Opened -----
FS[07:35] Cigar Box - 1.1.4.0
FS[07:35] FS: FSX
FS[07:35] FSUIPC: v4,973
FS[07:35] Flight Number: MFC37851
FS[07:35] FS Aircraft: DHC-2A N001MM New Misty Amphibian
FS[07:35] FS Model: DHC2
FS[07:35] FS Type: DeHavilland
FS[07:35] Departure: KPR
FS[07:35] Arrival: LKK
FS[07:35] Flight Level: 6500
FS[07:35] Flight Type: H
FS[07:35] Passengers: 5
FS[07:35] FOB: 570 lbs
FS[07:35] Gate: n/a
FS[07:35] NOTE: Parking Brake Ignored
FS[07:35] Crash Detection: Disabled
FS[07:35] Crash Detection Aircraft: Disabled
FS[07:35] Engines: 1 Piston
FS[07:35] NOTE: Boarding has started
FS[07:35] Light Data: Beacon ON
FS[07:35] Main Door Closed
FS[07:35] COM1: 128.30
FS[07:35] COM2: 127.80
FS[07:35] Transponder: 1200
FS[07:35] NAV1: 113.70
FS[07:35] NAV2: 110.60
FS[07:35] ADF1: 284.0
FS[07:35] ADF2: 240.0
FS[07:35] Navigation Mode: NAV
FS[07:35] Engine 1: Started
FS[07:35] Flaps: Position 1
FS[07:36] NOTE: Taxi started
FS[07:36] NOTE: ----- TAKE OFF -----
FS[07:36] GS: 62 knots
FS[07:36] TAS: 55 knots
FS[07:36] IAS: 54 knots
FS[07:36] VS: 15 fpm
FS[07:36] FOB: 569 lbs
FS[07:36] Heading: 207°
FS[07:36] Pitch: 3°
FS[07:36] Bank: 0°
FS[07:36] Aircraft Weight: 4339,60 lbs
FS[07:36] Nearest Airport: KPR
FS[07:36] Distance: 0,26 miles
FS[07:36] Runway: ???
FS[07:36] Ground Surface: Water
FS[07:36] Ground Condition: Normal
FS[07:36] NOTE: Weather Report
FS[07:36] Wind Heading: 342°
FS[07:36] Wind Speed: 10 knots
FS[07:36] OAT: 17° C
FS[07:36] TAT: 18° C
FS[07:36] Precipitation: None
FS[07:36] Dew Point: 11° C
FS[07:36] Visibility: 29 miles
FS[07:36] METAR: KPRB 110553Z AUTO 00000KT 10SM BKN075 07/06 A3000 RMK AO2 SLP159 T00670056 10139 20067 51019 $KPRC 110553Z AUTO 22004KT 10SM BKN065 04/M03 A2996 RMK AO2 SLP114 T00441033 10100 20044 51011KPRG 110615Z AUTO 30005KT 10SM CLR 01/00 A3033 RMK AO2 T00121005KPRN 110556Z AUTO 04004KT 10SM SCT034 BKN048 BKN090 19/14 A3015 RMK AO2 SLP206 60000 T01890144 10222 20189 402670178 58002KPRO 110635Z AUTO 00000KT 10SM OVC120 M04/M04 A3033 RMK AO2 T10401045KPRS 110615Z AUTO 04005G14KT 10SM CLR 18/05 A3005 RMK AO2 T01790050KPRX 110556Z AUTO 08007KT 10SM -RA OVC075 12/06 A3020 RMK AO2 LTG DSNT W RAB49 SLP242 P0000 60000 T01220056 10133 20117 401440089 53005
FS[07:36] NOTE: Climb started
FS[07:36] Flaps: Position 0
FS[07:36] GS: 79 knots
FS[07:36] TAS: 74 knots
FS[07:36] IAS: 73 knots
FS[07:36] VS: 326 fpm
FS[07:36] View Mode: Virtual Cockpit
FS[07:37] Autopilot: Engaged
FS[07:37] AGL: 987 ft
FS[07:37] AMSL: 987 ft
FS[07:52] Recovery: Flight Saved
FS[08:06] Flaps: Position 1
FS[08:06] GS: 124 knots
FS[08:06] TAS: 117 knots
FS[08:06] IAS: 115 knots
FS[08:06] VS: -622 fpm
FS[08:06] NOTE: ----- LANDED -----
FS[08:06] Landing Rate: -135,33 fpm
FS[08:06] GS: 69 knots
FS[08:06] TAS: 61 knots
FS[08:06] IAS: 60 knots
FS[08:06] VS: -135 fpm
FS[08:06] FOB: 460 lbs
FS[08:06] Heading: 160°
FS[08:06] Pitch: 5°
FS[08:06] Bank: 1°
FS[08:06] Aircraft Weight: 4230,81 lbs
FS[08:06] Nearest Airport: MCN
FS[08:06] Distance: 7,01 miles
FS[08:06] Runway: ???
FS[08:06] Ground Surface: Water
FS[08:06] Ground Condition: Normal
FS[08:06] NOTE: Weather Report
FS[08:06] Wind Heading: 358°
FS[08:06] Wind Speed: 10 knots
FS[08:06] OAT: 12° C
FS[08:06] TAT: 12° C
FS[08:06] Precipitation: None
FS[08:06] Dew Point: 11° C
FS[08:06] Visibility: 34 miles
FS[08:06] METAR: LKKB 110600Z 23011KT 9999 FEW040 SCT060 03/M03 Q1012 NOSIGLKKU 110600Z 27005KT 9999 FEW022 03/M01 Q1014LKKV 110605Z 21005KT 180V290 5000 -SHSN BKN004 BKN020 M01/M01 Q1010 RMK REG QNH 1009
FS[08:06] View Mode: Virtual Cockpit
FS[08:07] Flaps: Position 0
FS[08:07] NOTE: Taxi started
FS[08:07] Engine 1: Stopped
FS[08:07] Engine 1: Started
FS[08:07] Flaps: Position 2
FS[08:08] Flaps: Position 1
FS[08:08] GS: 64 knots
FS[08:08] TAS: 60 knots
FS[08:08] IAS: 60 knots
FS[08:08] VS: 401 fpm
FS[08:08] Flaps: Position 0
FS[08:08] GS: 64 knots
FS[08:08] TAS: 58 knots
FS[08:08] IAS: 57 knots
FS[08:08] VS: 791 fpm
FS[08:08] View Mode: Virtual Cockpit
FS[08:18] Recovery: Flight Saved
FS[08:18] Overspeed: Encountered
FS[08:18] GS: 167 knots
FS[08:18] TAS: 170 knots
FS[08:18] IAS: 162 knots
FS[08:18] VS: -4805 fpm
FS[08:18] Overspeed: Corrected
FS[08:18] GS: 169 knots
FS[08:18] TAS: 167 knots
FS[08:18] IAS: 160 knots
FS[08:18] VS: -2259 fpm
FS[08:22] Landing Gear: Retracted
FS[08:22] GS: 114 knots
FS[08:22] TAS: 114 knots
FS[08:22] IAS: 110 knots
FS[08:22] VS: 163 fpm
FS[08:22] AGL: 600 ft
FS[08:22] AMSL: 1295 ft
FS[08:22] Landing Gear: Extended
FS[08:22] GS: 116 knots
FS[08:22] TAS: 111 knots
FS[08:22] IAS: 108 knots
FS[08:22] VS: -371 fpm
FS[08:22] AGL: 499 ft
FS[08:22] AMSL: 1253 ft
FS[08:22] Flaps: Position 1
FS[08:22] GS: 124 knots
FS[08:22] TAS: 120 knots
FS[08:22] IAS: 117 knots
FS[08:22] VS: -382 fpm
FS[08:23] NOTE: ----- LANDED -----
FS[08:23] Landing Rate: -252,98 fpm
FS[08:23] GS: 60 knots
FS[08:23] TAS: 57 knots
FS[08:23] IAS: 56 knots
FS[08:23] VS: -251 fpm
FS[08:23] FOB: 400 lbs
FS[08:23] Heading: 244°
FS[08:23] Pitch: 7°
FS[08:23] Bank: 1°
FS[08:23] Aircraft Weight: 4170,49 lbs
FS[08:23] Nearest Airport: PAKL
FS[08:23] Distance: 0,24 miles
FS[08:23] Runway: 24 - LKK
FS[08:23] Ground Surface: Gravel
FS[08:23] Ground Condition: Wet
FS[08:23] NOTE: Weather Report
FS[08:23] Wind Heading: 0°
FS[08:23] Wind Speed: 20 knots
FS[08:23] OAT: 10° C
FS[08:23] TAT: 11° C
FS[08:23] Precipitation: Light Rain
FS[08:23] Dew Point: 10° C
FS[08:23] Visibility: 34 miles
FS[08:23] METAR: LKKB 110600Z 23011KT 9999 FEW040 SCT060 03/M03 Q1012 NOSIGLKKU 110600Z 27005KT 9999 FEW022 03/M01 Q1014LKKV 110605Z 21005KT 180V290 5000 -SHSN BKN004 BKN020 M01/M01 Q1010 RMK REG QNH 1009
FS[08:23] View Mode: Virtual Cockpit
FS[08:23] Flaps: Position 0
FS[08:24] Engine 1: Stopped
FS[08:25] Gate: 2 - LKK
FS[08:25] NOTE: Flight Completed
FS[08:25] FS Aircraft: DHC-2A N001MM New Misty Amphibian
FS[08:25] FS Model: DHC2
FS[08:25] FS Type: DeHavilland
FS[08:25] FOB: 400 lbs
FS[08:25] Fuel Used: 170 lbs
FS[08:25] Flight Time: 00:48:24
FS[08:25] Flight Time (Dawn): 00:00:00
FS[08:25] Flight Time (Day): 00:48:24
FS[08:25] Flight Time (Dusk): 00:00:00
FS[08:25] Flight Time (Night): 00:00:00
FS[08:25] Total Landings: 2
FS[08:25] MaxSim Rate: 0x
FS[08:25] Cigar Box - 1.1.4.0
FS[08:25] ----- Flight Closed -----

Route Map